sensor_id;sensor_type;location;lat;lon;timestamp;temperature;humidity
26541;DHT22;14206;50.202;10.948;2023-02-24T00:02:11;9.50;96.60
26541;DHT22;14206;50.202;10.948;2023-02-24T00:04:40;9.50;96.60
26541;DHT22;14206;50.202;10.948;2023-02-24T00:07:09;9.50;96.60
26541;DHT22;14206;50.202;10.948;2023-02-24T00:09:37;9.50;96.60
26541;DHT22;14206;50.202;10.948;2023-02-24T00:12:10;9.60;96.60
26541;DHT22;14206;50.202;10.948;2023-02-24T00:14:40;9.50;96.60
26541;DHT22;14206;50.202;10.948;2023-02-24T00:17:07;9.50;96.60
26541;DHT22;14206;50.202;10.948;2023-02-24T00:19:35;9.50;96.60
26541;DHT22;14206;50.202;10.948;2023-02-24T00:22:05;9.50;96.60
26541;DHT22;14206;50.202;10.948;2023-02-24T00:24:32;9.50;96.60
26541;DHT22;14206;50.202;10.948;2023-02-24T00:27:00;9.50;96.60
26541;DHT22;14206;50.202;10.948;2023-02-24T00:29:29;9.50;96.60
26541;DHT22;14206;50.202;10.948;2023-02-24T00:31:57;9.50;96.60
26541;DHT22;14206;50.202;10.948;2023-02-24T00:34:29;9.50;96.60
26541;DHT22;14206;50.202;10.948;2023-02-24T00:36:57;9.50;96.60
26541;DHT22;14206;50.202;10.948;2023-02-24T00:39:24;9.50;96.60
26541;DHT22;14206;50.202;10.948;2023-02-24T00:41:56;9.50;96.60
26541;DHT22;14206;50.202;10.948;2023-02-24T00:44:31;9.40;96.60
26541;DHT22;14206;50.202;10.948;2023-02-24T00:47:00;9.50;96.60
26541;DHT22;14206;50.202;10.948;2023-02-24T00:49:28;9.50;96.60
26541;DHT22;14206;50.202;10.948;2023-02-24T00:51:56;9.50;96.60
26541;DHT22;14206;50.202;10.948;2023-02-24T00:54:23;9.50;96.60
26541;DHT22;14206;50.202;10.948;2023-02-24T00:56:57;9.50;96.60
26541;DHT22;14206;50.202;10.948;2023-02-24T00:59:25;9.40;96.60
26541;DHT22;14206;50.202;10.948;2023-02-24T01:01:53;9.40;96.60
26541;DHT22;14206;50.202;10.948;2023-02-24T01:04:21;9.40;96.60
26541;DHT22;14206;50.202;10.948;2023-02-24T01:06:51;9.40;96.60
26541;DHT22;14206;50.202;10.948;2023-02-24T01:09:19;9.30;96.60
26541;DHT22;14206;50.202;10.948;2023-02-24T01:11:48;9.30;96.60
26541;DHT22;14206;50.202;10.948;2023-02-24T01:14:34;9.30;96.60
26541;DHT22;14206;50.202;10.948;2023-02-24T01:17:02;9.30;96.60
26541;DHT22;14206;50.202;10.948;2023-02-24T01:19:31;9.40;96.60
26541;DHT22;14206;50.202;10.948;2023-02-24T01:22:05;9.40;96.60
26541;DHT22;14206;50.202;10.948;2023-02-24T01:24:34;9.40;96.60
26541;DHT22;14206;50.202;10.948;2023-02-24T01:27:02;9.40;96.60
26541;DHT22;14206;50.202;10.948;2023-02-24T01:29:30;9.30;96.60
26541;DHT22;14206;50.202;10.948;2023-02-24T01:31:57;9.30;96.60
26541;DHT22;14206;50.202;10.948;2023-02-24T01:34:25;9.40;96.60
26541;DHT22;14206;50.202;10.948;2023-02-24T01:36:55;9.40;96.60
26541;DHT22;14206;50.202;10.948;2023-02-24T01:39:23;9.40;96.60
26541;DHT22;14206;50.202;10.948;2023-02-24T01:41:51;9.50;96.60
26541;DHT22;14206;50.202;10.948;2023-02-24T01:46:51;9.50;96.60
26541;DHT22;14206;50.202;10.948;2023-02-24T01:52:07;9.20;96.60
26541;DHT22;14206;50.202;10.948;2023-02-24T01:54:36;9.10;96.60
26541;DHT22;14206;50.202;10.948;2023-02-24T01:57:10;9.00;96.60
26541;DHT22;14206;50.202;10.948;2023-02-24T01:59:39;8.90;96.60
26541;DHT22;14206;50.202;10.948;2023-02-24T02:02:07;8.80;96.60
26541;DHT22;14206;50.202;10.948;2023-02-24T02:04:56;8.80;96.60
26541;DHT22;14206;50.202;10.948;2023-02-24T02:07:26;8.70;96.60
26541;DHT22;14206;50.202;10.948;2023-02-24T02:09:54;8.70;96.60
26541;DHT22;14206;50.202;10.948;2023-02-24T02:12:26;8.60;96.60
26541;DHT22;14206;50.202;10.948;2023-02-24T02:14:54;8.70;96.60
26541;DHT22;14206;50.202;10.948;2023-02-24T02:20:49;8.70;96.60
26541;DHT22;14206;50.202;10.948;2023-02-24T02:38:31;8.60;96.60
26541;DHT22;14206;50.202;10.948;2023-02-24T02:40:39;8.60;96.60
26541;DHT22;14206;50.202;10.948;2023-02-24T02:43:19;8.60;96.60
26541;DHT22;14206;50.202;10.948;2023-02-24T02:46:00;8.60;96.60
26541;DHT22;14206;50.202;10.948;2023-02-24T02:48:33;8.70;96.60
26541;DHT22;14206;50.202;10.948;2023-02-24T02:51:06;8.80;96.60
26541;DHT22;14206;50.202;10.948;2023-02-24T02:56:27;8.80;96.60
26541;DHT22;14206;50.202;10.948;2023-02-24T02:58:58;8.80;96.60
26541;DHT22;14206;50.202;10.948;2023-02-24T03:01:29;8.90;96.60
26541;DHT22;14206;50.202;10.948;2023-02-24T03:04:04;8.90;96.60
26541;DHT22;14206;50.202;10.948;2023-02-24T03:06:52;8.90;96.60
26541;DHT22;14206;50.202;10.948;2023-02-24T03:09:34;8.90;96.60
26541;DHT22;14206;50.202;10.948;2023-02-24T03:12:10;8.90;96.60
26541;DHT22;14206;50.202;10.948;2023-02-24T03:14:41;8.80;96.60
26541;DHT22;14206;50.202;10.948;2023-02-24T03:17:13;8.90;96.60
26541;DHT22;14206;50.202;10.948;2023-02-24T03:19:43;8.90;96.60
26541;DHT22;14206;50.202;10.948;2023-02-24T03:22:16;8.80;96.60
26541;DHT22;14206;50.202;10.948;2023-02-24T03:24:51;8.80;96.60
26541;DHT22;14206;50.202;10.948;2023-02-24T03:27:48;8.70;96.60
26541;DHT22;14206;50.202;10.948;2023-02-24T03:30:34;8.70;96.60
26541;DHT22;14206;50.202;10.948;2023-02-24T03:33:15;8.70;96.60
26541;DHT22;14206;50.202;10.948;2023-02-24T03:35:44;8.60;96.60
26541;DHT22;14206;50.202;10.948;2023-02-24T03:38:11;8.70;96.60
26541;DHT22;14206;50.202;10.948;2023-02-24T03:40:40;8.70;96.60
26541;DHT22;14206;50.202;10.948;2023-02-24T03:43:48;8.70;96.60
26541;DHT22;14206;50.202;10.948;2023-02-24T03:46:07;8.70;96.60
26541;DHT22;14206;50.202;10.948;2023-02-24T03:48:39;8.70;96.60
26541;DHT22;14206;50.202;10.948;2023-02-24T03:51:17;8.70;96.60
26541;DHT22;14206;50.202;10.948;2023-02-24T03:57:00;8.70;96.60
26541;DHT22;14206;50.202;10.948;2023-02-24T04:00:22;8.70;96.60
26541;DHT22;14206;50.202;10.948;2023-02-24T04:03:25;8.70;96.60
26541;DHT22;14206;50.202;10.948;2023-02-24T04:06:17;8.70;96.60
26541;DHT22;14206;50.202;10.948;2023-02-24T04:08:52;8.60;96.60
26541;DHT22;14206;50.202;10.948;2023-02-24T04:11:35;8.70;96.60
26541;DHT22;14206;50.202;10.948;2023-02-24T04:14:17;8.70;96.60
26541;DHT22;14206;50.202;10.948;2023-02-24T04:16:55;8.60;96.60
26541;DHT22;14206;50.202;10.948;2023-02-24T04:19:28;8.70;96.60
26541;DHT22;14206;50.202;10.948;2023-02-24T04:21:58;8.70;96.60
26541;DHT22;14206;50.202;10.948;2023-02-24T04:24:32;8.80;96.60
26541;DHT22;14206;50.202;10.948;2023-02-24T04:27:20;8.80;96.60
26541;DHT22;14206;50.202;10.948;2023-02-24T04:30:12;8.70;96.60
26541;DHT22;14206;50.202;10.948;2023-02-24T04:32:39;8.80;96.60
26541;DHT22;14206;50.202;10.948;2023-02-24T04:35:19;8.80;96.60
26541;DHT22;14206;50.202;10.948;2023-02-24T04:37:52;8.80;96.50
26541;DHT22;14206;50.202;10.948;2023-02-24T04:40:21;8.80;96.40
26541;DHT22;14206;50.202;10.948;2023-02-24T04:42:50;8.70;96.60
26541;DHT22;14206;50.202;10.948;2023-02-24T04:45:23;8.70;96.60
26541;DHT22;14206;50.202;10.948;2023-02-24T04:47:51;8.80;96.60
26541;DHT22;14206;50.202;10.948;2023-02-24T04:50:23;8.80;96.60
26541;DHT22;14206;50.202;10.948;2023-02-24T04:52:56;8.80;96.40
26541;DHT22;14206;50.202;10.948;2023-02-24T04:55:28;8.80;96.60
26541;DHT22;14206;50.202;10.948;2023-02-24T04:57:59;8.80;95.80
26541;DHT22;14206;50.202;10.948;2023-02-24T05:00:27;8.70;96.10
26541;DHT22;14206;50.202;10.948;2023-02-24T05:02:59;8.60;96.40
26541;DHT22;14206;50.202;10.948;2023-02-24T05:05:30;8.60;96.60
26541;DHT22;14206;50.202;10.948;2023-02-24T05:08:07;8.60;96.60
26541;DHT22;14206;50.202;10.948;2023-02-24T05:10:37;8.60;96.60
26541;DHT22;14206;50.202;10.948;2023-02-24T05:13:05;8.60;96.60
26541;DHT22;14206;50.202;10.948;2023-02-24T05:15:33;8.60;96.50
26541;DHT22;14206;50.202;10.948;2023-02-24T05:18:03;8.60;96.60
26541;DHT22;14206;50.202;10.948;2023-02-24T05:20:37;8.60;96.50
26541;DHT22;14206;50.202;10.948;2023-02-24T05:23:32;8.70;96.40
26541;DHT22;14206;50.202;10.948;2023-02-24T05:26:02;8.70;96.20
26541;DHT22;14206;50.202;10.948;2023-02-24T05:28:29;8.60;96.00
26541;DHT22;14206;50.202;10.948;2023-02-24T05:31:12;8.60;96.00
26541;DHT22;14206;50.202;10.948;2023-02-24T05:33:42;8.60;96.20
26541;DHT22;14206;50.202;10.948;2023-02-24T05:36:13;8.60;96.40
26541;DHT22;14206;50.202;10.948;2023-02-24T05:38:44;8.60;96.10
26541;DHT22;14206;50.202;10.948;2023-02-24T05:41:14;8.60;96.10
26541;DHT22;14206;50.202;10.948;2023-02-24T05:43:46;8.50;95.50
26541;DHT22;14206;50.202;10.948;2023-02-24T05:46:17;8.40;96.30
26541;DHT22;14206;50.202;10.948;2023-02-24T05:48:49;8.30;96.40
26541;DHT22;14206;50.202;10.948;2023-02-24T05:51:16;8.20;96.60
26541;DHT22;14206;50.202;10.948;2023-02-24T05:53:44;8.20;96.60
26541;DHT22;14206;50.202;10.948;2023-02-24T05:56:11;8.20;96.60
26541;DHT22;14206;50.202;10.948;2023-02-24T05:58:44;8.20;96.60
26541;DHT22;14206;50.202;10.948;2023-02-24T06:01:38;8.20;96.60
26541;DHT22;14206;50.202;10.948;2023-02-24T06:04:19;8.30;96.60
26541;DHT22;14206;50.202;10.948;2023-02-24T06:07:13;8.20;96.60
26541;DHT22;14206;50.202;10.948;2023-02-24T06:09:45;8.30;96.60
26541;DHT22;14206;50.202;10.948;2023-02-24T06:12:17;8.20;96.60
26541;DHT22;14206;50.202;10.948;2023-02-24T06:14:44;8.20;96.60
26541;DHT22;14206;50.202;10.948;2023-02-24T06:17:11;8.20;96.60
26541;DHT22;14206;50.202;10.948;2023-02-24T06:19:40;8.30;96.60
26541;DHT22;14206;50.202;10.948;2023-02-24T06:22:12;8.30;96.60
26541;DHT22;14206;50.202;10.948;2023-02-24T06:24:40;8.40;96.60
26541;DHT22;14206;50.202;10.948;2023-02-24T06:27:11;8.40;96.60
26541;DHT22;14206;50.202;10.948;2023-02-24T06:29:50;8.40;96.60
26541;DHT22;14206;50.202;10.948;2023-02-24T06:32:19;8.40;96.60
26541;DHT22;14206;50.202;10.948;2023-02-24T06:34:46;8.30;96.60
26541;DHT22;14206;50.202;10.948;2023-02-24T06:37:14;8.30;96.60
26541;DHT22;14206;50.202;10.948;2023-02-24T06:39:41;8.40;96.60
26541;DHT22;14206;50.202;10.948;2023-02-24T06:42:10;8.40;96.60
26541;DHT22;14206;50.202;10.948;2023-02-24T06:44:39;8.40;96.60
26541;DHT22;14206;50.202;10.948;2023-02-24T06:47:09;8.40;96.60
26541;DHT22;14206;50.202;10.948;2023-02-24T06:49:36;8.50;96.50
26541;DHT22;14206;50.202;10.948;2023-02-24T06:52:04;8.50;96.30
26541;DHT22;14206;50.202;10.948;2023-02-24T06:54:31;8.50;96.50
26541;DHT22;14206;50.202;10.948;2023-02-24T06:57:01;8.50;96.60
26541;DHT22;14206;50.202;10.948;2023-02-24T06:59:32;8.60;96.10
26541;DHT22;14206;50.202;10.948;2023-02-24T07:02:00;8.60;96.30
26541;DHT22;14206;50.202;10.948;2023-02-24T07:04:30;8.60;96.20
26541;DHT22;14206;50.202;10.948;2023-02-24T07:07:02;8.60;96.40
26541;DHT22;14206;50.202;10.948;2023-02-24T07:09:30;8.70;96.30
26541;DHT22;14206;50.202;10.948;2023-02-24T07:11:57;8.70;96.10
26541;DHT22;14206;50.202;10.948;2023-02-24T07:14:28;8.80;95.90
26541;DHT22;14206;50.202;10.948;2023-02-24T07:16:59;8.80;96.20
26541;DHT22;14206;50.202;10.948;2023-02-24T07:19:28;8.80;95.80
26541;DHT22;14206;50.202;10.948;2023-02-24T07:21:57;8.80;95.90
26541;DHT22;14206;50.202;10.948;2023-02-24T07:24:32;8.90;95.80
26541;DHT22;14206;50.202;10.948;2023-02-24T07:27:07;8.90;95.60
26541;DHT22;14206;50.202;10.948;2023-02-24T07:29:37;8.90;95.20
26541;DHT22;14206;50.202;10.948;2023-02-24T07:32:06;9.00;95.40
26541;DHT22;14206;50.202;10.948;2023-02-24T07:34:34;9.00;95.40
26541;DHT22;14206;50.202;10.948;2023-02-24T07:37:05;9.00;95.10
26541;DHT22;14206;50.202;10.948;2023-02-24T07:39:34;9.00;94.80
26541;DHT22;14206;50.202;10.948;2023-02-24T07:42:03;9.00;95.20
26541;DHT22;14206;50.202;10.948;2023-02-24T07:44:41;8.90;95.40
26541;DHT22;14206;50.202;10.948;2023-02-24T07:47:10;9.00;95.40
26541;DHT22;14206;50.202;10.948;2023-02-24T07:49:38;9.00;95.40
26541;DHT22;14206;50.202;10.948;2023-02-24T07:52:06;9.00;95.90
26541;DHT22;14206;50.202;10.948;2023-02-24T07:54:36;9.10;95.20
26541;DHT22;14206;50.202;10.948;2023-02-24T07:57:05;9.10;95.20
26541;DHT22;14206;50.202;10.948;2023-02-24T07:59:34;9.10;95.40
26541;DHT22;14206;50.202;10.948;2023-02-24T08:02:03;9.10;95.40
26541;DHT22;14206;50.202;10.948;2023-02-24T08:04:33;9.20;95.70
26541;DHT22;14206;50.202;10.948;2023-02-24T08:07:02;9.20;95.90
26541;DHT22;14206;50.202;10.948;2023-02-24T08:09:33;9.30;95.10
26541;DHT22;14206;50.202;10.948;2023-02-24T08:14:45;9.30;95.10
26541;DHT22;14206;50.202;10.948;2023-02-24T08:17:18;9.40;95.00
26541;DHT22;14206;50.202;10.948;2023-02-24T08:19:50;9.50;94.70
26541;DHT22;14206;50.202;10.948;2023-02-24T08:22:34;9.50;94.20
26541;DHT22;14206;50.202;10.948;2023-02-24T08:25:03;9.50;94.70
26541;DHT22;14206;50.202;10.948;2023-02-24T08:27:34;9.50;94.60
26541;DHT22;14206;50.202;10.948;2023-02-24T08:30:06;9.50;94.40
26541;DHT22;14206;50.202;10.948;2023-02-24T08:32:38;9.50;94.80
26541;DHT22;14206;50.202;10.948;2023-02-24T08:35:13;9.60;94.30
26541;DHT22;14206;50.202;10.948;2023-02-24T08:37:46;9.60;94.30
26541;DHT22;14206;50.202;10.948;2023-02-24T08:43:06;9.60;94.30
26541;DHT22;14206;50.202;10.948;2023-02-24T08:48:20;9.50;94.00
26541;DHT22;14206;50.202;10.948;2023-02-24T08:53:38;9.40;94.80
26541;DHT22;14206;50.202;10.948;2023-02-24T08:56:10;9.50;95.00
26541;DHT22;14206;50.202;10.948;2023-02-24T08:58:43;9.50;95.00
26541;DHT22;14206;50.202;10.948;2023-02-24T09:01:17;9.60;94.00
26541;DHT22;14206;50.202;10.948;2023-02-24T09:03:47;9.60;93.00
26541;DHT22;14206;50.202;10.948;2023-02-24T09:06:17;9.60;93.10
26541;DHT22;14206;50.202;10.948;2023-02-24T09:08:55;9.60;93.30
26541;DHT22;14206;50.202;10.948;2023-02-24T09:11:41;9.60;93.40
26541;DHT22;14206;50.202;10.948;2023-02-24T09:14:14;9.70;93.00
26541;DHT22;14206;50.202;10.948;2023-02-24T09:16:57;9.90;93.20
26541;DHT22;14206;50.202;10.948;2023-02-24T09:19:43;10.20;91.20
26541;DHT22;14206;50.202;10.948;2023-02-24T09:22:25;10.30;90.20
26541;DHT22;14206;50.202;10.948;2023-02-24T09:25:10;10.30;89.90
26541;DHT22;14206;50.202;10.948;2023-02-24T09:30:23;10.40;89.20
26541;DHT22;14206;50.202;10.948;2023-02-24T09:35:49;10.40;88.80
26541;DHT22;14206;50.202;10.948;2023-02-24T09:38:18;10.30;88.60
26541;DHT22;14206;50.202;10.948;2023-02-24T09:40:48;10.20;88.80
26541;DHT22;14206;50.202;10.948;2023-02-24T09:43:24;10.10;88.70
26541;DHT22;14206;50.202;10.948;2023-02-24T09:45:58;10.00;89.00
26541;DHT22;14206;50.202;10.948;2023-02-24T09:48:35;10.00;89.70
26541;DHT22;14206;50.202;10.948;2023-02-24T09:51:13;10.00;89.60
26541;DHT22;14206;50.202;10.948;2023-02-24T09:53:52;10.10;88.80
26541;DHT22;14206;50.202;10.948;2023-02-24T09:56:30;10.10;89.10
26541;DHT22;14206;50.202;10.948;2023-02-24T09:59:13;10.10;88.90
26541;DHT22;14206;50.202;10.948;2023-02-24T10:09:56;10.30;86.60
26541;DHT22;14206;50.202;10.948;2023-02-24T10:15:42;10.40;86.20
26541;DHT22;14206;50.202;10.948;2023-02-24T10:24:31;10.80;85.70
26541;DHT22;14206;50.202;10.948;2023-02-24T10:27:25;10.90;84.80
26541;DHT22;14206;50.202;10.948;2023-02-24T10:30:11;11.10;84.50
26541;DHT22;14206;50.202;10.948;2023-02-24T10:32:59;11.10;83.10
26541;DHT22;14206;50.202;10.948;2023-02-24T10:35:30;11.00;83.40
26541;DHT22;14206;50.202;10.948;2023-02-24T10:38:01;11.00;83.60
26541;DHT22;14206;50.202;10.948;2023-02-24T10:40:33;11.00;83.50
26541;DHT22;14206;50.202;10.948;2023-02-24T10:43:17;11.00;83.30
26541;DHT22;14206;50.202;10.948;2023-02-24T10:45:46;10.90;83.10
26541;DHT22;14206;50.202;10.948;2023-02-24T10:48:23;10.90;83.20
26541;DHT22;14206;50.202;10.948;2023-02-24T10:51:13;10.80;83.80
26541;DHT22;14206;50.202;10.948;2023-02-24T10:53:50;10.90;83.60
26541;DHT22;14206;50.202;10.948;2023-02-24T10:56:42;11.00;83.90
26541;DHT22;14206;50.202;10.948;2023-02-24T10:59:17;11.30;82.70
26541;DHT22;14206;50.202;10.948;2023-02-24T11:01:53;11.60;81.60
26541;DHT22;14206;50.202;10.948;2023-02-24T11:04:37;11.80;80.40
26541;DHT22;14206;50.202;10.948;2023-02-24T11:07:34;11.90;79.30
26541;DHT22;14206;50.202;10.948;2023-02-24T11:10:23;11.90;79.70
26541;DHT22;14206;50.202;10.948;2023-02-24T11:12:59;11.80;80.50
26541;DHT22;14206;50.202;10.948;2023-02-24T11:15:52;11.60;80.30
26541;DHT22;14206;50.202;10.948;2023-02-24T11:18:39;11.60;80.60
26541;DHT22;14206;50.202;10.948;2023-02-24T11:21:12;11.40;82.20
26541;DHT22;14206;50.202;10.948;2023-02-24T11:23:52;11.10;83.30
26541;DHT22;14206;50.202;10.948;2023-02-24T11:26:23;10.70;84.70
26541;DHT22;14206;50.202;10.948;2023-02-24T11:34:56;11.00;88.90
26541;DHT22;14206;50.202;10.948;2023-02-24T11:40:14;11.70;86.10
26541;DHT22;14206;50.202;10.948;2023-02-24T11:45:52;11.90;84.60
26541;DHT22;14206;50.202;10.948;2023-02-24T11:48:29;12.00;83.20
26541;DHT22;14206;50.202;10.948;2023-02-24T11:51:01;12.20;83.00
26541;DHT22;14206;50.202;10.948;2023-02-24T11:59:27;12.40;79.30
26541;DHT22;14206;50.202;10.948;2023-02-24T12:05:04;12.60;76.40
26541;DHT22;14206;50.202;10.948;2023-02-24T12:07:50;12.60;76.40
26541;DHT22;14206;50.202;10.948;2023-02-24T12:10:52;12.70;74.80
26541;DHT22;14206;50.202;10.948;2023-02-24T12:13:29;12.50;74.90
26541;DHT22;14206;50.202;10.948;2023-02-24T12:16:18;12.20;74.70
26541;DHT22;14206;50.202;10.948;2023-02-24T12:18:57;12.10;76.80
26541;DHT22;14206;50.202;10.948;2023-02-24T12:21:31;12.10;77.60
26541;DHT22;14206;50.202;10.948;2023-02-24T12:23:59;12.30;76.70
26541;DHT22;14206;50.202;10.948;2023-02-24T12:26:44;12.30;74.40
26541;DHT22;14206;50.202;10.948;2023-02-24T12:32:28;12.20;75.10
26541;DHT22;14206;50.202;10.948;2023-02-24T12:40:15;11.40;76.80
26541;DHT22;14206;50.202;10.948;2023-02-24T12:43:12;11.50;76.70
26541;DHT22;14206;50.202;10.948;2023-02-24T12:45:46;11.50;75.70
26541;DHT22;14206;50.202;10.948;2023-02-24T12:51:08;11.20;75.30
26541;DHT22;14206;50.202;10.948;2023-02-24T12:56:45;11.20;76.30
26541;DHT22;14206;50.202;10.948;2023-02-24T12:59:22;11.30;76.10
26541;DHT22;14206;50.202;10.948;2023-02-24T13:01:56;11.30;75.80
26541;DHT22;14206;50.202;10.948;2023-02-24T13:13:39;11.50;74.00
26541;DHT22;14206;50.202;10.948;2023-02-24T13:16:10;11.50;72.40
26541;DHT22;14206;50.202;10.948;2023-02-24T13:18:38;11.60;72.60
26541;DHT22;14206;50.202;10.948;2023-02-24T13:21:18;11.60;71.80
26541;DHT22;14206;50.202;10.948;2023-02-24T13:24:20;11.60;71.20
26541;DHT22;14206;50.202;10.948;2023-02-24T13:26:47;11.60;70.30
26541;DHT22;14206;50.202;10.948;2023-02-24T13:29:15;11.40;70.40
26541;DHT22;14206;50.202;10.948;2023-02-24T13:31:50;11.40;71.50
26541;DHT22;14206;50.202;10.948;2023-02-24T13:34:28;11.40;71.80
26541;DHT22;14206;50.202;10.948;2023-02-24T13:36:56;11.50;71.40
26541;DHT22;14206;50.202;10.948;2023-02-24T13:39:24;11.40;71.90
26541;DHT22;14206;50.202;10.948;2023-02-24T13:50:09;11.20;70.60
26541;DHT22;14206;50.202;10.948;2023-02-24T14:01:04;10.70;73.10
26541;DHT22;14206;50.202;10.948;2023-02-24T14:03:32;10.80;72.80
26541;DHT22;14206;50.202;10.948;2023-02-24T14:06:00;10.80;72.50
26541;DHT22;14206;50.202;10.948;2023-02-24T14:08:44;10.70;71.80
26541;DHT22;14206;50.202;10.948;2023-02-24T14:11:14;10.60;72.90
26541;DHT22;14206;50.202;10.948;2023-02-24T14:13:51;10.60;74.00
26541;DHT22;14206;50.202;10.948;2023-02-24T14:16:28;10.60;73.30
26541;DHT22;14206;50.202;10.948;2023-02-24T14:18:58;10.70;73.30
26541;DHT22;14206;50.202;10.948;2023-02-24T14:21:28;10.70;73.40
26541;DHT22;14206;50.202;10.948;2023-02-24T14:23:59;10.70;73.70
26541;DHT22;14206;50.202;10.948;2023-02-24T14:26:28;10.60;72.70
26541;DHT22;14206;50.202;10.948;2023-02-24T14:28:59;10.50;72.70
26541;DHT22;14206;50.202;10.948;2023-02-24T14:31:27;10.40;73.50
26541;DHT22;14206;50.202;10.948;2023-02-24T14:34:03;10.30;73.70
26541;DHT22;14206;50.202;10.948;2023-02-24T14:36:36;10.20;74.40
26541;DHT22;14206;50.202;10.948;2023-02-24T14:41:35;10.20;74.70
26541;DHT22;14206;50.202;10.948;2023-02-24T14:44:15;10.10;74.90
26541;DHT22;14206;50.202;10.948;2023-02-24T14:46:53;10.00;75.10
26541;DHT22;14206;50.202;10.948;2023-02-24T14:49:24;10.00;74.90
26541;DHT22;14206;50.202;10.948;2023-02-24T14:52:13;10.00;74.70
26541;DHT22;14206;50.202;10.948;2023-02-24T14:54:49;10.00;74.40
26541;DHT22;14206;50.202;10.948;2023-02-24T14:57:25;9.90;74.20
26541;DHT22;14206;50.202;10.948;2023-02-24T14:59:54;9.90;74.50
26541;DHT22;14206;50.202;10.948;2023-02-24T15:02:26;9.90;74.90
26541;DHT22;14206;50.202;10.948;2023-02-24T15:04:55;9.90;74.40
26541;DHT22;14206;50.202;10.948;2023-02-24T15:09:51;9.70;73.90
26541;DHT22;14206;50.202;10.948;2023-02-24T15:12:27;9.60;74.60
26541;DHT22;14206;50.202;10.948;2023-02-24T15:15:02;9.60;74.70
26541;DHT22;14206;50.202;10.948;2023-02-24T15:17:30;9.60;74.40
26541;DHT22;14206;50.202;10.948;2023-02-24T15:19:58;9.60;74.90
26541;DHT22;14206;50.202;10.948;2023-02-24T15:22:29;9.60;75.10
26541;DHT22;14206;50.202;10.948;2023-02-24T15:27:35;9.50;74.80
26541;DHT22;14206;50.202;10.948;2023-02-24T15:30:20;9.50;75.10
26541;DHT22;14206;50.202;10.948;2023-02-24T15:33:19;9.40;75.50
26541;DHT22;14206;50.202;10.948;2023-02-24T15:35:53;9.40;75.90
26541;DHT22;14206;50.202;10.948;2023-02-24T15:38:29;9.40;76.10
26541;DHT22;14206;50.202;10.948;2023-02-24T15:40:59;9.30;75.90
26541;DHT22;14206;50.202;10.948;2023-02-24T15:43:36;9.20;76.20
26541;DHT22;14206;50.202;10.948;2023-02-24T15:53:03;9.10;76.90
26541;DHT22;14206;50.202;10.948;2023-02-24T15:55:30;8.90;77.50
26541;DHT22;14206;50.202;10.948;2023-02-24T15:58:01;8.90;77.90
26541;DHT22;14206;50.202;10.948;2023-02-24T16:00:29;8.80;77.70
26541;DHT22;14206;50.202;10.948;2023-02-24T16:02:57;8.80;77.30
26541;DHT22;14206;50.202;10.948;2023-02-24T16:05:24;8.70;77.40
26541;DHT22;14206;50.202;10.948;2023-02-24T16:07:52;8.60;77.40
26541;DHT22;14206;50.202;10.948;2023-02-24T16:10:23;8.60;77.00
26541;DHT22;14206;50.202;10.948;2023-02-24T16:12:52;8.50;77.40
26541;DHT22;14206;50.202;10.948;2023-02-24T16:15:34;8.50;77.10
26541;DHT22;14206;50.202;10.948;2023-02-24T16:18:08;8.40;76.70
26541;DHT22;14206;50.202;10.948;2023-02-24T16:20:39;8.30;76.80
26541;DHT22;14206;50.202;10.948;2023-02-24T16:23:06;8.30;76.90
26541;DHT22;14206;50.202;10.948;2023-02-24T16:25:43;8.20;77.20
26541;DHT22;14206;50.202;10.948;2023-02-24T16:28:15;8.20;77.60
26541;DHT22;14206;50.202;10.948;2023-02-24T16:30:43;8.20;78.50
26541;DHT22;14206;50.202;10.948;2023-02-24T16:33:11;8.10;79.80
26541;DHT22;14206;50.202;10.948;2023-02-24T16:35:39;8.00;80.30
26541;DHT22;14206;50.202;10.948;2023-02-24T16:38:13;7.90;81.30
26541;DHT22;14206;50.202;10.948;2023-02-24T16:40:46;7.70;81.70
26541;DHT22;14206;50.202;10.948;2023-02-24T16:43:13;7.60;82.30
26541;DHT22;14206;50.202;10.948;2023-02-24T16:45:44;7.50;82.80
26541;DHT22;14206;50.202;10.948;2023-02-24T16:48:18;7.30;84.10
26541;DHT22;14206;50.202;10.948;2023-02-24T16:50:46;7.10;85.80
26541;DHT22;14206;50.202;10.948;2023-02-24T16:53:16;7.00;87.10
26541;DHT22;14206;50.202;10.948;2023-02-24T16:55:45;6.90;88.30
26541;DHT22;14206;50.202;10.948;2023-02-24T16:58:12;6.80;89.10
26541;DHT22;14206;50.202;10.948;2023-02-24T17:00:41;6.60;90.10
26541;DHT22;14206;50.202;10.948;2023-02-24T17:03:17;6.40;90.90
26541;DHT22;14206;50.202;10.948;2023-02-24T17:05:45;6.20;92.60
26541;DHT22;14206;50.202;10.948;2023-02-24T17:08:13;6.10;92.90
26541;DHT22;14206;50.202;10.948;2023-02-24T17:10:40;5.90;94.10
26541;DHT22;14206;50.202;10.948;2023-02-24T17:13:14;5.70;95.10
26541;DHT22;14206;50.202;10.948;2023-02-24T17:15:41;5.70;95.80
26541;DHT22;14206;50.202;10.948;2023-02-24T17:18:10;5.60;95.40
26541;DHT22;14206;50.202;10.948;2023-02-24T17:20:39;5.50;96.60
26541;DHT22;14206;50.202;10.948;2023-02-24T17:23:06;5.40;96.60
26541;DHT22;14206;50.202;10.948;2023-02-24T17:25:33;5.30;96.60
26541;DHT22;14206;50.202;10.948;2023-02-24T17:28:00;5.30;96.60
26541;DHT22;14206;50.202;10.948;2023-02-24T17:30:31;5.30;96.60
26541;DHT22;14206;50.202;10.948;2023-02-24T17:32:59;5.30;96.60
26541;DHT22;14206;50.202;10.948;2023-02-24T17:35:27;5.30;96.60
26541;DHT22;14206;50.202;10.948;2023-02-24T17:37:54;5.20;96.60
26541;DHT22;14206;50.202;10.948;2023-02-24T17:40:21;5.20;96.60
26541;DHT22;14206;50.202;10.948;2023-02-24T17:42:49;5.10;96.60
26541;DHT22;14206;50.202;10.948;2023-02-24T17:45:15;5.10;96.60
26541;DHT22;14206;50.202;10.948;2023-02-24T17:47:42;5.00;96.60
26541;DHT22;14206;50.202;10.948;2023-02-24T17:50:13;5.00;96.60
26541;DHT22;14206;50.202;10.948;2023-02-24T17:52:40;4.90;96.60
26541;DHT22;14206;50.202;10.948;2023-02-24T17:55:08;4.90;96.60
26541;DHT22;14206;50.202;10.948;2023-02-24T17:57:35;4.90;96.60
26541;DHT22;14206;50.202;10.948;2023-02-24T18:00:03;4.90;96.60
26541;DHT22;14206;50.202;10.948;2023-02-24T18:02:38;4.80;96.60
26541;DHT22;14206;50.202;10.948;2023-02-24T18:05:06;4.80;96.60
26541;DHT22;14206;50.202;10.948;2023-02-24T18:07:33;4.80;96.60
26541;DHT22;14206;50.202;10.948;2023-02-24T18:10:01;4.80;96.60
26541;DHT22;14206;50.202;10.948;2023-02-24T18:12:28;4.70;96.60
26541;DHT22;14206;50.202;10.948;2023-02-24T18:14:55;4.70;96.60
26541;DHT22;14206;50.202;10.948;2023-02-24T18:17:35;4.70;96.60
26541;DHT22;14206;50.202;10.948;2023-02-24T18:20:02;4.70;96.60
26541;DHT22;14206;50.202;10.948;2023-02-24T18:22:29;4.70;96.60
26541;DHT22;14206;50.202;10.948;2023-02-24T18:24:56;4.60;96.60